Blanco, Oklahoma
Current Conditions -  °F | °C
As of 12:21 AM on Monday 22 Dec 2014 (Local Time) from KMLC Reporting Station
Overcast Overcast  
Wind Chill: 44°   Ceiling: 1300
Heat Index: 48°   Visibility: 10mi
Dew Point: 44°   Wind: 8mph
Humidity: 86%   Direction: 160°SSE
Pressure: 29.71"   Gusts: 16mph
Location:  34.75°N, 95.78°W
Report Text: KMLC 220621Z AUTO 16007G14KT 10SM BKN013 OVC030 09/07 A2971 RMK AO2 T00890067 $
Loading
Personal Weather Stations






























Interactive Weather Map New forecast layout! Learn more

10-Day Weather Forecast

Advertisements
Track Severe Weather on mobile